JRLK1: John Redmond Lake

Data processed at Sat Mar 10 2018 23:50


All information presented herein is the property of the government of the United States of America and may be revised or deleted at any time without prior notice.
Dissemination of this information without the expressed written consent of the Public Affairs Office, Tulsa District U.S. Army Corps of Engineers is strictly prohibited.
These data are gathered electronically and, as presented, have not undergone any form of quality control. These data are not guaranteed to be valid or correct.
Go to home page.
Go to station list.

Upstream stations:

Downstream station:
Previous Day
Next Day
Current Day
    
SHEF ID:       JRLK1     John Redmond Lake
STATION TYPE:  RESERVOIR
Normal Pool:  Bottom =  1026.00, Top =  1041.00

               PRECIP ELEVATION   STORAGE    INFLOW   RELEASE  AIR-TEMP  WIND-DIRWIND-SPEED REL-HUMID SOLAR-RAD   VOLTAGE  BAT-LOAD
                   in        ft     ac-ft       cfs       cfs         F       deg       mph         %      W/m2      volt      volt
              Ccp-Rev   Ccp-Rev   Ccp-Rev  Regi-Rev  Regi-Rev   Ccp-Rev   Ccp-Rev   Ccp-Rev   Ccp-Rev   Ccp-Rev   Ccp-Rev   Ccp-Rev
(US/Central)
03/08 00:00      0.00   1041.75     74392       181       320     35.11      0.10      7.00     51.83      0.00     12.66     12.42
03/08 01:00      0.00   1041.78     74675       210       320     33.58    348.80      6.50     60.84      0.00     12.64     12.40
03/08 02:00      0.00   1041.79     74770       207       320     33.24    333.70      9.00     63.30      0.00     12.63     12.38
03/08 03:00      0.00   1041.78     74675       169       320     30.38    345.80     11.00     68.49      0.00     12.61     12.37
03/08 04:00      0.00   1041.76     74486       117       320     29.48    349.90      9.20     72.50      0.00     12.60     12.36
03/08 05:00      0.00   1041.73     74203        91       320     27.79    351.90      8.70     76.66      0.00     12.58     12.34
03/08 06:00      0.00   1041.74     74297        65       320     25.90    359.70      6.30     86.42      0.00     12.57     12.34
03/08 07:00      0.00   1041.76     74486        65       320     25.25      1.10      5.90     89.42      1.40     12.57     12.32
03/08 08:00      0.00   1041.74     74297        35       320     25.23    352.60      7.20     92.34    144.30     12.71     12.37
03/08 09:00      0.00   1041.75     74392         6       320     27.30     15.30      8.70     75.68    377.80     13.13     12.68
03/08 10:00      0.00   1041.74     74297         3       185     29.62    351.30      4.70     64.33    588.40     13.87     13.01
03/08 11:00      0.00   1041.73     74203         0       185     32.65    333.40      4.30     55.21    749.90     13.48     12.96
03/08 12:00      0.00   1041.73     74203         0       185     34.88    273.50      6.00     50.54    801.50     14.16     12.93
03/08 13:00      0.00   1041.75     74392         0       185     38.55    270.50      5.40     41.78    871.70     13.88     12.90
03/08 14:00      0.00   1041.75     74392         0       185     41.04    332.20      5.40     41.43    804.40     14.12     12.89
03/08 15:00      0.00   1041.73     74203         0       185     45.27    334.50      3.70     33.15    589.20     13.58     12.82
03/08 16:00      0.00   1041.72     74108         0       185     48.83    151.60      7.50     26.62    505.00     13.87     12.81
03/08 17:00      0.00   1041.71     74014         0       185     49.12    143.20      9.10     27.59    375.00     13.56     12.78
03/08 18:00      0.00   1041.72     74108         0       185     48.36    130.80     10.70     29.30     97.10     12.94     12.71
03/08 19:00      0.00   1041.75     74392         0       185     46.20    125.20      6.30     33.27      3.40     12.78     12.57
03/08 20:00      0.00   1041.71     74014         5       185     43.43    113.40      5.00     37.61      0.00     12.75     12.50
03/08 21:00      0.00   1041.73     74203        11       185     42.10    105.30      5.50     43.40      0.00     12.73     12.49
03/08 22:00      0.00   1041.73     74203        16       185     40.69    105.70      7.00     50.42      0.00     12.71     12.46
03/08 23:00      0.00   1041.69     73825        16       185     39.07    116.40      7.20     52.31      0.00     12.69     12.44